Time;durP1;ratioP1;P1;durP2;ratioP2;P2;SDS_P1;SDS_P2;PMS_P1;PMS_P2;Temp;Humidity;BMP_temperature;BMP_pressure;BME280_temperature;BME280_humidity;BME280_pressure;Samples;Min_cycle;Max_cycle;Signal;HPM_P1;HPM_P2
2023/09/14 00:00:44;;;;;;;24.30;16.10;;;;;;;9.81;100.00;100677.40;105532;1262;73162;-61
2023/09/14 00:03:11;;;;;;;22.60;14.40;;;;;;;9.81;100.00;100679.86;105310;1266;61947;-61
2023/09/14 00:05:39;;;;;;;23.00;14.00;;;;;;;9.78;100.00;100675.78;105002;1261;61132;-61
2023/09/14 00:08:06;;;;;;;22.90;13.10;;;;;;;9.77;100.00;100679.70;105291;1265;74852;-58
2023/09/14 00:10:33;;;;;;;21.50;13.80;;;;;;;9.74;100.00;100682.41;105295;1262;66172;-60
2023/09/14 00:13:00;;;;;;;19.30;12.30;;;;;;;9.69;100.00;100687.23;104793;1262;71543;-60
2023/09/14 00:15:28;;;;;;;18.30;11.90;;;;;;;9.63;100.00;100691.52;104890;1263;61269;-58
2023/09/14 00:17:55;;;;;;;22.10;12.00;;;;;;;9.56;100.00;100689.33;104910;1261;61267;-58
2023/09/14 00:20:23;;;;;;;18.70;11.50;;;;;;;9.50;100.00;100687.85;105051;1264;75640;-59
2023/09/14 00:22:50;;;;;;;19.10;12.70;;;;;;;9.44;100.00;100688.11;104904;1262;67601;-60
2023/09/14 00:25:18;;;;;;;18.30;12.60;;;;;;;9.41;100.00;100687.11;105057;1262;71569;-58
2023/09/14 00:27:45;;;;;;;17.50;12.00;;;;;;;9.40;100.00;100688.29;105045;1262;61258;-58
2023/09/14 00:30:12;;;;;;;21.40;13.60;;;;;;;9.39;100.00;100689.15;105167;1263;253969;-58
2023/09/14 00:32:40;;;;;;;18.60;12.50;;;;;;;9.38;100.00;100689.13;105407;1266;74609;-59
2023/09/14 00:35:09;;;;;;;21.70;12.70;;;;;;;9.36;100.00;100689.20;104880;1263;67184;-58
2023/09/14 00:37:37;;;;;;;23.40;13.60;;;;;;;9.34;100.00;100687.80;105233;1264;72600;-58
2023/09/14 00:40:08;;;;;;;19.00;12.20;;;;;;;9.33;100.00;100688.88;105114;1265;61319;-58
2023/09/14 00:42:42;;;;;;;24.90;13.10;;;;;;;9.29;100.00;100684.59;105281;1262;61439;-59
2023/09/14 00:45:14;;;;;;;19.70;13.10;;;;;;;9.25;100.00;100685.05;105135;1261;74727;-58
2023/09/14 00:47:45;;;;;;;22.00;13.70;;;;;;;9.21;100.00;100679.02;105096;1263;67306;-58
2023/09/14 00:50:15;;;;;;;19.70;12.30;;;;;;;9.20;100.00;100678.38;105339;1265;71481;-60
2023/09/14 00:52:43;;;;;;;25.90;14.40;;;;;;;9.20;100.00;100678.93;105144;1266;62011;-58
2023/09/14 00:55:11;;;;;;;19.10;13.30;;;;;;;9.18;100.00;100676.92;105006;1265;61388;-58
2023/09/14 00:57:38;;;;;;;18.30;12.50;;;;;;;9.12;100.00;100679.42;105314;1261;74421;-60
2023/09/14 01:00:10;;;;;;;17.30;11.40;;;;;;;9.04;100.00;100678.19;105501;1261;66589;-61
2023/09/14 01:02:40;;;;;;;21.60;13.80;;;;;;;8.97;100.00;100680.54;105152;1262;72631;-62
2023/09/14 01:05:07;;;;;;;25.50;15.80;;;;;;;8.93;100.00;100680.27;105449;1265;61442;-65
2023/09/14 01:07:34;;;;;;;21.50;14.60;;;;;;;8.89;100.00;100683.06;105415;1263;61309;-60
2023/09/14 01:10:02;;;;;;;19.30;13.40;;;;;;;8.86;100.00;100684.22;105286;1263;74580;-59
2023/09/14 01:12:29;;;;;;;20.40;14.30;;;;;;;8.84;100.00;100687.11;105179;1261;65610;-60
2023/09/14 01:15:06;;;;;;;21.80;13.60;;;;;;;8.82;100.00;100687.59;105357;1267;71665;-60
2023/09/14 01:17:35;;;;;;;23.30;15.40;;;;;;;8.81;100.00;100686.52;105295;1261;61239;-57
2023/09/14 01:20:24;;;;;;;17.50;11.50;;;;;;;8.82;100.00;100687.44;105337;1262;61313;-61
2023/09/14 01:23:10;;;;;;;14.00;9.30;;;;;;;8.86;100.00;100687.92;105109;1262;73690;-59
2023/09/14 01:25:42;;;;;;;16.70;9.50;;;;;;;8.90;100.00;100686.25;105214;1261;66544;-60
2023/09/14 01:28:09;;;;;;;;;;;;;;;8.95;100.00;100693.33;105030;1262;73951;-59
2023/09/14 01:30:37;;;;;;;13.60;9.00;;;;;;;8.99;100.00;100694.67;105193;1261;61273;-59
2023/09/14 01:33:09;;;;;;;14.10;9.10;;;;;;;9.01;100.00;100695.14;105006;1262;61234;-59
2023/09/14 01:35:52;;;;;;;12.90;9.10;;;;;;;9.00;100.00;100696.58;105137;1261;75223;-59
2023/09/14 01:38:19;;;;;;;15.50;8.20;;;;;;;8.99;100.00;100695.20;104729;1262;67668;-59
2023/09/14 01:40:48;;;;;;;12.60;8.20;;;;;;;8.96;100.00;100695.02;105018;1266;72523;-60
2023/09/14 01:43:14;;;;;;;15.70;8.40;;;;;;;8.94;100.00;100696.09;105024;1267;59787;-59
2023/09/14 01:45:41;;;;;;;15.10;8.50;;;;;;;8.92;100.00;100695.89;105042;1267;61252;-59
2023/09/14 01:48:14;;;;;;;15.40;8.00;;;;;;;8.89;100.00;100694.89;104894;1262;72642;-59
2023/09/14 01:50:42;;;;;;;13.10;8.40;;;;;;;8.83;100.00;100699.79;104985;1267;66064;-61
2023/09/14 01:53:09;;;;;;;17.70;9.70;;;;;;;8.81;100.00;100699.68;105220;1262;73139;-59
2023/09/14 01:55:37;;;;;;;16.80;11.30;;;;;;;8.79;100.00;100699.73;105276;1261;61234;-59
2023/09/14 01:58:04;;;;;;;20.90;13.50;;;;;;;8.76;100.00;100705.75;105041;1263;61287;-59
2023/09/14 02:00:32;;;;;;;23.30;14.10;;;;;;;8.73;100.00;100705.71;105471;1262;73271;-61
2023/09/14 02:02:59;;;;;;;21.40;14.10;;;;;;;8.70;100.00;100707.25;105087;1262;66544;-59
2023/09/14 02:05:26;;;;;;;21.50;13.80;;;;;;;8.67;100.00;100708.05;105111;1267;71582;-59
2023/09/14 02:07:53;;;;;;;20.90;13.80;;;;;;;8.64;100.00;100709.25;105183;1262;61341;-58
2023/09/14 02:10:22;;;;;;;23.00;14.70;;;;;;;8.62;100.00;100715.34;105187;1262;61279;-59
2023/09/14 02:12:49;;;;;;;22.10;12.90;;;;;;;8.60;100.00;100715.92;105321;1262;74460;-60
2023/09/14 02:15:17;;;;;;;20.00;13.30;;;;;;;8.59;100.00;100712.20;105243;1262;67252;-59
2023/09/14 02:17:44;;;;;;;17.00;13.00;;;;;;;8.58;100.00;100714.91;105169;1267;72561;-59
2023/09/14 02:20:11;;;;;;;20.80;13.00;;;;;;;8.57;100.00;100714.75;105113;1262;62065;-59
2023/09/14 02:22:39;;;;;;;18.10;11.70;;;;;;;8.54;100.00;100719.31;105420;1266;60393;-60
2023/09/14 02:25:06;;;;;;;16.40;11.00;;;;;;;8.51;100.00;100720.63;105415;1261;74665;-59
2023/09/14 02:27:34;;;;;;;19.80;11.90;;;;;;;8.48;100.00;100725.96;105243;1264;66014;-59
2023/09/14 02:30:03;;;;;;;16.40;11.90;;;;;;;8.44;100.00;100728.44;105195;1266;72639;-58
2023/09/14 02:32:30;;;;;;;18.30;10.90;;;;;;;8.41;100.00;100729.11;105284;1262;60533;-59
2023/09/14 02:34:57;;;;;;;17.00;10.60;;;;;;;8.37;100.00;100728.45;105119;1265;61344;-59
2023/09/14 02:37:24;;;;;;;17.50;10.40;;;;;;;8.34;100.00;100728.77;105188;1266;74560;-59
2023/09/14 02:39:51;;;;;;;14.10;10.00;;;;;;;8.33;100.00;100727.16;105352;1261;67044;-59
2023/09/14 02:42:18;;;;;;;17.90;12.10;;;;;;;8.32;100.00;100727.65;105127;1261;71364;-59
2023/09/14 02:44:46;;;;;;;16.10;10.20;;;;;;;8.28;100.00;100733.15;105829;1261;61156;-57
2023/09/14 02:47:14;;;;;;;17.30;9.80;;;;;;;8.26;100.00;100732.02;106782;1261;60690;-58
2023/09/14 02:49:41;;;;;;;15.60;9.90;;;;;;;8.23;100.00;100735.44;105392;1265;75035;-58
2023/09/14 02:52:08;;;;;;;16.60;10.50;;;;;;;8.19;100.00;100733.64;105079;1262;66082;-58
2023/09/14 02:54:35;;;;;;;14.60;10.30;;;;;;;8.16;100.00;100733.23;105454;1262;72580;-59
2023/09/14 02:57:02;;;;;;;19.10;11.90;;;;;;;8.15;100.00;100732.64;104845;1264;61141;-59
2023/09/14 02:59:30;;;;;;;18.50;12.00;;;;;;;8.15;100.00;100736.84;105873;1262;61249;-61
2023/09/14 03:01:57;;;;;;;16.10;11.50;;;;;;;8.19;100.00;100740.73;105296;1262;74871;-58
2023/09/14 03:04:24;;;;;;;19.40;10.90;;;;;;;8.27;100.00;100744.95;104856;1262;67344;-58
2023/09/14 03:06:51;;;;;;;20.40;10.40;;;;;;;8.33;100.00;100742.36;105338;1262;72707;-60
2023/09/14 03:09:18;;;;;;;16.90;10.80;;;;;;;8.39;100.00;100743.69;105023;1262;61400;-58
2023/09/14 03:11:45;;;;;;;18.60;11.80;;;;;;;8.47;100.00;100744.86;105366;1266;60483;-58
2023/09/14 03:14:12;;;;;;;14.60;9.90;;;;;;;8.57;100.00;100745.22;104890;1261;73426;-57
2023/09/14 03:16:39;;;;;;;17.30;10.50;;;;;;;8.68;100.00;100747.48;105254;1265;66076;-59
2023/09/14 03:19:06;;;;;;;15.00;10.50;;;;;;;8.80;100.00;100749.95;105075;1265;71352;-60
2023/09/14 03:21:33;;;;;;;14.90;10.20;;;;;;;8.96;100.00;100749.39;105352;1261;61342;-59
2023/09/14 03:24:01;;;;;;;16.00;10.60;;;;;;;9.23;100.00;100746.98;104833;1262;61295;-61
2023/09/14 03:26:28;;;;;;;17.40;10.80;;;;;;;9.56;100.00;100753.09;105059;1265;73710;-60
2023/09/14 03:28:55;;;;;;;18.30;11.70;;;;;;;9.97;100.00;100751.55;104568;1267;66298;-62
2023/09/14 03:31:23;;;;;;;13.70;9.80;;;;;;;10.42;100.00;100745.37;106025;1261;72548;-60
2023/09/14 03:33:52;;;;;;;14.60;9.10;;;;;;;10.89;100.00;100745.68;105032;1265;61211;-60
2023/09/14 03:36:19;;;;;;;15.70;10.20;;;;;;;11.36;100.00;100748.69;105226;1263;61276;-59
2023/09/14 03:38:46;;;;;;;14.10;9.80;;;;;;;11.88;100.00;100750.55;105233;1266;73693;-59
2023/09/14 03:41:14;;;;;;;14.50;10.00;;;;;;;12.49;100.00;100755.22;105266;1266;67453;-60
2023/09/14 03:43:42;;;;;;;12.80;9.50;;;;;;;13.18;100.00;100758.05;104845;1266;71403;-59
2023/09/14 03:46:10;;;;;;;13.00;9.00;;;;;;;13.94;100.00;100755.22;105103;1265;61289;-59
2023/09/14 03:48:37;;;;;;;15.00;8.90;;;;;;;14.66;100.00;100753.22;105364;1262;61258;-61
2023/09/14 03:51:04;;;;;;;11.10;9.40;;;;;;;15.20;100.00;100748.00;105502;1261;73482;-62
2023/09/14 03:53:31;;;;;;;14.50;9.90;;;;;;;15.44;100.00;100727.23;104836;1266;66734;-61
2023/09/14 03:55:59;;;;;;;12.50;8.60;;;;;;;15.50;100.00;100712.14;104944;1266;72523;-59
2023/09/14 03:58:27;;;;;;;12.90;8.10;;;;;;;15.59;100.00;100694.50;104860;1262;61889;-59
2023/09/14 04:00:54;;;;;;;14.90;8.60;;;;;;;15.73;100.00;100682.79;104686;1262;61350;-62
2023/09/14 04:03:22;;;;;;;13.20;8.70;;;;;;;15.89;100.00;100670.40;105351;1266;74628;-61
2023/09/14 04:05:49;;;;;;;15.30;8.40;;;;;;;16.02;100.00;100656.91;104950;1262;67084;-59
2023/09/14 04:08:17;;;;;;;12.80;8.70;;;;;;;16.24;100.00;100649.13;105081;1262;72482;-59
2023/09/14 04:10:45;;;;;;;12.40;8.30;;;;;;;16.55;100.00;100643.52;105208;1267;61354;-61
2023/09/14 04:13:32;;;;;;;11.40;8.60;;;;;;;16.96;100.00;100636.85;105327;1262;61265;-59
2023/09/14 04:16:05;;;;;;;11.70;8.20;;;;;;;17.57;100.00;100633.31;104626;1262;73473;-58
2023/09/14 04:18:35;;;;;;;11.40;8.30;;;;;;;18.19;100.00;100626.35;105167;1262;65971;-59
2023/09/14 04:21:02;;;;;;;14.00;8.40;;;;;;;18.89;100.00;100626.45;105291;1264;72744;-60
2023/09/14 04:23:29;;;;;;;14.00;9.50;;;;;;;19.51;100.00;100622.64;105156;1266;61277;-59
2023/09/14 04:25:59;;;;;;;11.60;9.10;;;;;;;19.98;100.00;100621.55;105108;1263;61710;-59
2023/09/14 04:28:26;;;;;;;13.10;8.80;;;;;;;20.52;100.00;100619.12;105131;1261;74579;-58
2023/09/14 04:30:57;;;;;;;12.00;8.90;;;;;;;21.06;100.00;100614.66;105159;1262;67147;-60
2023/09/14 04:33:25;;;;;;;13.20;9.30;;;;;;;21.41;100.00;100618.51;104904;1262;73227;-60
2023/09/14 04:36:01;;;;;;;12.00;8.90;;;;;;;21.57;100.00;100614.57;104951;1262;61234;-58
2023/09/14 04:38:29;;;;;;;11.80;9.10;;;;;;;21.71;100.00;100618.29;104997;1266;60520;-59
2023/09/14 04:40:57;;;;;;;14.20;9.60;;;;;;;21.85;100.00;100613.30;105305;1262;74794;-57
2023/09/14 04:43:24;;;;;;;12.40;9.70;;;;;;;22.11;100.00;100615.97;105169;1262;66162;-58
2023/09/14 04:45:51;;;;;;;11.40;9.40;;;;;;;22.54;100.00;100608.18;105258;1261;72446;-58
2023/09/14 04:48:18;;;;;;;10.80;9.00;;;;;;;22.97;100.00;100606.39;105053;1265;61263;-57
2023/09/14 04:50:45;;;;;;;12.30;9.90;;;;;;;23.28;100.00;100605.02;105531;1263;61309;-59
2023/09/14 04:53:12;;;;;;;12.60;10.10;;;;;;;23.69;96.06;100605.64;105534;1261;74157;-60
2023/09/14 04:55:39;;;;;;;11.30;9.20;;;;;;;24.03;87.07;100606.95;105074;1265;66142;-58
2023/09/14 04:58:06;;;;;;;12.40;9.20;;;;;;;24.28;80.32;100605.96;104993;1265;71375;-58
2023/09/14 05:00:34;;;;;;;11.60;9.70;;;;;;;24.50;75.46;100603.02;105053;1265;61200;-58
2023/09/14 05:03:04;;;;;;;10.30;9.10;;;;;;;24.69;72.36;100602.73;104551;1265;61837;-59
2023/09/14 05:05:35;;;;;;;14.30;9.40;;;;;;;24.78;68.37;100598.30;104730;1266;75197;-61
2023/09/14 05:08:06;;;;;;;11.80;10.10;;;;;;;24.67;65.11;100595.34;104864;1262;67262;-60
2023/09/14 05:10:33;;;;;;;13.70;10.00;;;;;;;24.35;65.13;100596.66;104835;1262;71475;-61
2023/09/14 05:13:00;;;;;;;12.90;10.40;;;;;;;23.89;66.47;100596.42;104856;1267;61216;-61
2023/09/14 05:15:29;;;;;;;14.80;10.40;;;;;;;23.28;70.98;100600.34;105015;1261;61263;-59
2023/09/14 05:17:56;;;;;;;15.40;10.00;;;;;;;22.52;77.56;100601.73;104868;1261;73367;-58
2023/09/14 05:20:23;;;;;;;14.40;10.80;;;;;;;21.77;88.51;100605.98;104817;1266;65962;-59
2023/09/14 05:22:50;;;;;;;21.40;11.00;;;;;;;21.12;97.88;100606.96;104618;1262;72778;-59
2023/09/14 05:25:18;;;;;;;14.00;10.30;;;;;;;20.60;100.00;100608.83;105375;1262;61386;-62
2023/09/14 05:27:45;;;;;;;12.10;10.40;;;;;;;20.18;100.00;100608.41;105012;1261;61274;-60
2023/09/14 05:30:12;;;;;;;13.70;10.50;;;;;;;19.79;100.00;100604.63;104818;1262;74593;-59
2023/09/14 05:32:40;;;;;;;13.40;10.40;;;;;;;19.39;100.00;100602.73;105188;1266;65768;-60
2023/09/14 05:35:07;;;;;;;13.70;10.10;;;;;;;19.10;100.00;100605.91;104941;1262;72650;-61
2023/09/14 05:37:35;;;;;;;12.70;10.40;;;;;;;18.76;100.00;100609.98;104942;1267;61281;-60
2023/09/14 05:40:12;;;;;;;15.40;10.30;;;;;;;18.47;100.00;100610.00;104652;1262;61246;-59
2023/09/14 05:42:42;;;;;;;11.70;9.60;;;;;;;18.36;100.00;100609.67;105207;1261;74688;-59
2023/09/14 05:45:11;;;;;;;14.30;9.80;;;;;;;18.32;100.00;100607.89;105199;1265;66009;-59
2023/09/14 05:47:38;;;;;;;13.20;9.30;;;;;;;18.23;100.00;100604.66;104640;1262;72664;-58
2023/09/14 05:50:07;;;;;;;15.70;10.40;;;;;;;18.28;100.00;100604.93;104932;1262;61275;-59
2023/09/14 05:52:35;;;;;;;14.20;10.00;;;;;;;18.44;100.00;100602.00;104785;1262;61273;-61
2023/09/14 05:55:06;;;;;;;13.90;9.60;;;;;;;18.65;100.00;100601.64;104916;1261;75356;-58
2023/09/14 05:57:34;;;;;;;14.80;10.20;;;;;;;18.84;100.00;100601.41;105008;1261;67344;-58
2023/09/14 06:00:08;;;;;;;13.20;9.80;;;;;;;19.00;100.00;100597.02;104998;1262;72616;-60
2023/09/14 06:02:40;;;;;;;14.90;9.60;;;;;;;19.19;100.00;100599.98;104894;1262;61398;-61
2023/09/14 06:05:09;;;;;;;13.50;9.40;;;;;;;19.37;100.00;100596.88;105405;1261;61268;-59
2023/09/14 06:07:54;;;;;;;14.00;9.50;;;;;;;19.59;100.00;100597.64;105316;1262;73568;-60
2023/09/14 06:10:23;;;;;;;14.30;9.50;;;;;;;19.83;100.00;100595.50;105249;1262;67211;-61
2023/09/14 06:12:51;;;;;;;15.40;9.50;;;;;;;20.09;100.00;100599.79;104827;1263;73224;-59
2023/09/14 06:15:18;;;;;;;13.50;8.60;;;;;;;20.30;100.00;100592.89;105106;1267;61258;-59
2023/09/14 06:17:48;;;;;;;15.50;8.50;;;;;;;20.61;100.00;100597.14;105130;1264;61361;-59
2023/09/14 06:20:15;;;;;;;13.70;9.00;;;;;;;20.86;100.00;100592.33;105502;1264;74825;-62
2023/09/14 06:22:42;;;;;;;10.30;8.50;;;;;;;21.07;100.00;100593.38;105182;1261;68130;-60
2023/09/14 06:25:10;;;;;;;12.90;8.70;;;;;;;21.33;100.00;100596.79;105219;1262;72856;-60
2023/09/14 06:27:37;;;;;;;13.10;8.40;;;;;;;21.77;100.00;100599.02;105002;1261;61444;-60
2023/09/14 06:30:06;;;;;;;12.70;8.40;;;;;;;22.32;97.16;100593.48;105270;1262;61279;-63
2023/09/14 06:32:33;;;;;;;11.90;7.70;;;;;;;22.83;87.67;100590.92;104714;1263;73479;-60
2023/09/14 06:34:59;;;;;;;9.90;7.50;;;;;;;23.23;80.87;100589.15;105321;1264;65929;-60
2023/09/14 06:37:27;;;;;;;12.20;7.90;;;;;;;23.63;75.29;100585.48;104822;1262;72542;-60
2023/09/14 06:39:54;;;;;;;16.40;10.30;;;;;;;23.97;68.88;100587.17;104909;1262;61262;-60
2023/09/14 06:42:21;;;;;;;12.50;8.90;;;;;;;24.26;67.49;100588.45;105164;1262;61163;-62
2023/09/14 06:44:48;;;;;;;16.70;12.50;;;;;;;24.62;60.86;100588.51;104927;1265;74967;-60
2023/09/14 06:47:15;;;;;;;15.70;10.80;;;;;;;24.79;56.66;100583.95;104838;1262;67971;-61
2023/09/14 06:49:43;;;;;;;17.60;11.60;;;;;;;25.00;57.70;100586.52;104898;1265;71791;-60
2023/09/14 06:52:10;;;;;;;13.40;9.30;;;;;;;25.42;55.20;100584.27;104700;1262;61328;-60
2023/09/14 06:54:37;;;;;;;16.00;9.70;;;;;;;25.84;52.05;100580.92;104978;1262;61262;-62
2023/09/14 06:57:04;;;;;;;12.90;8.50;;;;;;;26.16;48.50;100581.98;104684;1262;73380;-60
2023/09/14 06:59:34;;;;;;;9.20;7.70;;;;;;;26.26;48.37;100577.80;104877;1266;66251;-61
2023/09/14 07:02:02;;;;;;;10.40;7.70;;;;;;;26.46;45.64;100577.11;104858;1262;72668;-61
2023/09/14 07:04:30;;;;;;;9.90;7.90;;;;;;;26.54;44.19;100576.35;105042;1261;61313;-63
2023/09/14 07:06:57;;;;;;;12.10;8.10;;;;;;;26.39;43.13;100577.59;104635;1262;61109;-61
2023/09/14 07:09:24;;;;;;;16.80;8.90;;;;;;;26.32;44.37;100575.77;104857;1266;74356;-62
2023/09/14 07:11:52;;;;;;;11.40;8.20;;;;;;;26.40;44.46;100577.52;104647;1262;67511;-61
2023/09/14 07:14:19;;;;;;;11.50;8.00;;;;;;;26.34;43.42;100573.25;107818;1262;72890;-62
2023/09/14 07:16:46;;;;;;;11.20;6.80;;;;;;;26.18;43.85;100576.27;104707;1266;61252;-62
2023/09/14 07:19:13;;;;;;;9.70;6.50;;;;;;;26.12;43.56;100572.09;104808;1262;61277;-61
2023/09/14 07:21:40;;;;;;;7.40;4.80;;;;;;;26.15;42.48;100572.11;104871;1267;74658;-60
2023/09/14 07:24:07;;;;;;;7.30;5.40;;;;;;;26.20;41.98;100575.27;104618;1266;66031;-61
2023/09/14 07:26:35;;;;;;;6.60;4.10;;;;;;;26.27;41.87;100575.49;104806;1262;72072;-61
2023/09/14 07:29:02;;;;;;;9.90;4.70;;;;;;;26.22;41.50;100567.56;105480;1262;61150;-63
2023/09/14 07:31:29;;;;;;;7.90;5.50;;;;;;;26.08;42.12;100567.89;105148;1266;61118;-62
2023/09/14 07:33:56;;;;;;;6.90;4.80;;;;;;;25.90;43.62;100569.19;104831;1262;74765;-61
2023/09/14 07:36:23;;;;;;;6.50;4.20;;;;;;;25.94;43.16;100568.36;104754;1261;65982;-64
2023/09/14 07:38:50;;;;;;;6.50;3.50;;;;;;;26.21;42.94;100564.27;104940;1262;71479;-64
2023/09/14 07:41:18;;;;;;;6.20;3.10;;;;;;;26.57;40.92;100567.08;108434;1262;60523;-60
2023/09/14 07:43:45;;;;;;;11.70;4.30;;;;;;;26.73;39.11;100571.09;108535;1262;59356;-60
2023/09/14 07:46:12;;;;;;;13.20;4.30;;;;;;;26.55;38.97;100568.91;105995;1266;74786;-62
2023/09/14 07:48:41;;;;;;;5.60;3.80;;;;;;;26.33;39.11;100573.24;105088;1261;65863;-62
2023/09/14 07:51:09;;;;;;;5.20;3.20;;;;;;;26.33;39.35;100573.41;104750;1265;71541;-63
2023/09/14 07:53:36;;;;;;;5.30;3.80;;;;;;;26.52;39.69;100571.06;104918;1265;61290;-61
2023/09/14 07:56:03;;;;;;;5.60;3.10;;;;;;;26.75;38.40;100568.30;104689;1262;61264;-62
2023/09/14 07:58:31;;;;;;;5.60;3.60;;;;;;;26.87;37.89;100568.70;104826;1262;73447;-62
2023/09/14 08:00:58;;;;;;;7.50;5.90;;;;;;;27.05;37.71;100567.65;105091;1262;67108;-62
2023/09/14 08:03:27;;;;;;;6.10;4.20;;;;;;;27.23;37.18;100569.98;104834;1264;71312;-62
2023/09/14 08:05:54;;;;;;;9.60;4.20;;;;;;;27.32;38.39;100565.21;104665;1262;61369;-62
2023/09/14 08:08:21;;;;;;;4.30;3.00;;;;;;;27.68;37.33;100564.67;105061;1266;61258;-64
2023/09/14 08:10:50;;;;;;;5.20;2.40;;;;;;;27.82;35.52;100565.13;104652;1262;74889;-61
2023/09/14 08:13:17;;;;;;;3.20;2.60;;;;;;;27.68;34.96;100565.48;104860;1267;66184;-64
2023/09/14 08:15:45;;;;;;;7.10;3.00;;;;;;;27.64;34.35;100565.21;104871;1262;72841;-62
2023/09/14 08:18:12;;;;;;;4.20;3.10;;;;;;;27.59;34.53;100564.58;105077;1262;61161;-61
2023/09/14 08:20:42;;;;;;;5.70;3.10;;;;;;;27.69;34.88;100558.45;105346;1262;61312;-64
2023/09/14 08:23:12;;;;;;;5.60;2.70;;;;;;;27.84;34.94;100560.08;104985;1261;74724;-64
2023/09/14 08:25:44;;;;;;;4.20;2.80;;;;;;;27.96;34.59;100564.23;104808;1262;65881;-62
2023/09/14 08:28:19;;;;;;;3.60;2.50;;;;;;;27.85;33.64;100559.09;105119;1262;74399;-61
2023/09/14 08:30:47;;;;;;;3.50;2.60;;;;;;;27.57;34.00;100557.44;104660;1261;60903;-62
2023/09/14 08:33:15;;;;;;;5.10;2.80;;;;;;;27.46;34.21;100558.88;104947;1262;61688;-62
2023/09/14 08:35:46;;;;;;;15.30;3.60;;;;;;;27.41;34.77;100556.67;104668;1264;75266;-61
2023/09/14 08:38:13;;;;;;;6.00;3.00;;;;;;;27.56;35.08;100552.69;104783;1262;67305;-60
2023/09/14 08:40:41;;;;;;;4.60;2.80;;;;;;;27.65;33.72;100554.80;104870;1262;71732;-61
2023/09/14 08:43:12;;;;;;;4.30;2.90;;;;;;;27.54;33.41;100552.06;105193;1266;61841;-62
2023/09/14 08:45:39;;;;;;;4.60;2.70;;;;;;;27.59;34.37;100548.89;104811;1266;61290;-61
2023/09/14 08:48:06;;;;;;;4.00;3.10;;;;;;;27.71;34.32;100547.71;104790;1262;72823;-61
2023/09/14 08:50:34;;;;;;;5.30;3.00;;;;;;;27.80;33.37;100547.27;105098;1262;66027;-64
2023/09/14 08:53:01;;;;;;;3.50;2.40;;;;;;;27.61;33.11;100543.39;104875;1262;73238;-63
2023/09/14 08:55:31;;;;;;;3.40;2.50;;;;;;;27.53;32.52;100541.70;104781;1266;61234;-60
2023/09/14 08:57:58;;;;;;;6.20;3.30;;;;;;;27.76;33.57;100540.83;104728;1262;61250;-62
2023/09/14 09:00:26;;;;;;;5.30;2.90;;;;;;;28.36;32.81;100539.29;104649;1262;74664;-61
2023/09/14 09:02:54;;;;;;;8.70;3.30;;;;;;;28.81;31.79;100536.84;105091;1265;66935;-63
2023/09/14 09:05:22;;;;;;;5.80;3.30;;;;;;;28.83;31.07;100539.21;104802;1267;70753;-61
2023/09/14 09:07:50;;;;;;;5.90;3.00;;;;;;;28.90;31.32;100530.65;104864;1267;61241;-61
2023/09/14 09:10:28;;;;;;;4.10;3.10;;;;;;;29.19;30.96;100532.98;104750;1261;61289;-61
2023/09/14 09:12:59;;;;;;;4.30;2.90;;;;;;;29.24;30.50;100535.89;105113;1262;73505;-64
2023/09/14 09:15:36;;;;;;;3.50;2.60;;;;;;;28.84;30.40;100535.60;104769;1262;66406;-61
2023/09/14 09:18:04;;;;;;;3.70;2.40;;;;;;;28.53;30.83;100536.02;104773;1262;72720;-61
2023/09/14 09:20:32;;;;;;;4.80;2.80;;;;;;;28.35;30.21;100535.34;104854;1262;61309;-62
2023/09/14 09:22:59;;;;;;;6.30;2.40;;;;;;;28.33;30.57;100536.44;105472;1261;61180;-63
2023/09/14 09:25:29;;;;;;;3.40;2.50;;;;;;;28.27;30.23;100531.71;105162;1262;73282;-61
2023/09/14 09:27:59;;;;;;;4.10;2.60;;;;;;;28.15;30.70;100537.79;104660;1265;67530;-61
2023/09/14 09:30:33;;;;;;;3.30;2.30;;;;;;;28.00;30.45;100534.31;105869;1262;73164;-63
2023/09/14 09:33:03;;;;;;;6.40;3.10;;;;;;;28.08;30.75;100534.24;104942;1262;61277;-62
2023/09/14 09:35:31;;;;;;;3.90;2.50;;;;;;;28.44;30.52;100530.00;105277;1264;61255;-61
2023/09/14 09:37:59;;;;;;;5.80;3.00;;;;;;;29.09;30.45;100525.45;105102;1262;74014;-62
2023/09/14 09:40:32;;;;;;;3.40;2.50;;;;;;;29.75;30.14;100518.91;105110;1262;66350;-64
2023/09/14 09:43:04;;;;;;;4.00;2.80;;;;;;;30.34;29.92;100518.80;105579;1262;73083;-62
2023/09/14 09:45:31;;;;;;;3.30;2.40;;;;;;;30.77;29.12;100510.73;105255;1265;61256;-60
2023/09/14 09:48:02;;;;;;;3.70;2.60;;;;;;;31.05;28.37;100509.29;105225;1262;61312;-60
2023/09/14 09:50:30;;;;;;;3.60;2.80;;;;;;;31.15;27.98;100510.05;104622;1262;65433;-62
2023/09/14 09:52:57;;;;;;;5.20;2.70;;;;;;;30.91;27.19;100510.87;104667;1269;65748;-61
2023/09/14 09:55:25;;;;;;;4.40;2.80;;;;;;;30.30;27.23;100508.50;104783;1266;71132;-60
2023/09/14 09:57:54;;;;;;;4.40;2.90;;;;;;;29.83;27.61;100507.39;105088;1262;61301;-62
2023/09/14 10:00:21;;;;;;;3.90;3.00;;;;;;;29.59;28.03;100506.81;104833;1262;61286;-60
2023/09/14 10:02:53;;;;;;;6.90;3.10;;;;;;;29.54;28.55;100506.15;104824;1262;75894;-60
2023/09/14 10:05:33;;;;;;;;;;;;;;;29.43;27.93;100501.80;105273;1265;67048;-61
2023/09/14 10:08:01;;;;;;;5.20;3.10;;;;;;;29.34;28.41;100497.30;105198;1262;70971;-63
2023/09/14 10:10:30;;;;;;;4.50;2.80;;;;;;;29.43;28.26;100499.65;104695;1264;61933;-63
2023/09/14 10:13:00;;;;;;;4.50;2.90;;;;;;;29.46;28.48;100496.41;105135;1262;61239;-62
2023/09/14 10:15:28;;;;;;;5.20;2.30;;;;;;;29.43;27.54;100493.21;104574;1265;74921;-64
2023/09/14 10:17:56;;;;;;;3.80;2.40;;;;;;;29.44;26.80;100494.48;105428;1263;66059;-61
2023/09/14 10:20:27;;;;;;;4.10;2.60;;;;;;;29.46;27.13;100494.97;104680;1262;73605;-63
2023/09/14 10:22:54;;;;;;;5.70;2.60;;;;;;;29.46;27.47;100491.43;104683;1268;61252;-62
2023/09/14 10:25:21;;;;;;;4.10;3.20;;;;;;;29.69;28.12;100488.59;104740;1266;61166;-61
2023/09/14 10:27:49;;;;;;;3.70;2.50;;;;;;;30.08;26.93;100489.36;104732;1263;73486;-61
2023/09/14 10:30:17;;;;;;;4.90;2.60;;;;;;;30.36;26.24;100480.79;104763;1266;67094;-62
2023/09/14 10:32:48;;;;;;;4.60;2.40;;;;;;;30.70;26.91;100482.65;104737;1262;72975;-61
2023/09/14 10:35:17;;;;;;;;;;;;;;;31.13;26.90;100480.09;104882;1266;61563;-59
2023/09/14 10:37:45;;;;;;;6.10;2.80;;;;;;;31.56;26.08;100478.88;106073;1263;61367;-63
2023/09/14 10:40:13;;;;;;;4.70;3.50;;;;;;;31.87;26.24;100477.92;104881;1266;67687;-61
2023/09/14 10:42:41;;;;;;;5.90;3.30;;;;;;;31.68;26.08;100479.41;104757;1262;61410;-62
2023/09/14 10:45:09;;;;;;;4.90;3.40;;;;;;;31.28;26.69;100471.02;105069;1262;64141;-62
2023/09/14 10:47:38;;;;;;;4.80;3.50;;;;;;;31.14;27.59;100470.91;104925;1263;61289;-62
2023/09/14 10:50:06;;;;;;;4.80;2.80;;;;;;;31.20;27.03;100472.75;104995;1262;61372;-60
2023/09/14 10:52:33;;;;;;;4.50;2.90;;;;;;;31.06;26.71;100470.45;104709;1265;75369;-59
2023/09/14 10:55:00;;;;;;;4.50;3.30;;;;;;;30.86;26.60;100472.16;104857;1265;61103;-62
2023/09/14 10:57:28;;;;;;;3.70;2.90;;;;;;;30.44;26.66;100466.48;104906;1263;66120;-60
2023/09/14 11:00:01;;;;;;;6.60;3.70;;;;;;;30.06;27.54;100469.77;104752;1268;61254;-62
2023/09/14 11:02:45;;;;;;;4.60;3.30;;;;;;;29.93;28.30;100467.00;104743;1267;61688;-62
2023/09/14 11:05:39;;;;;;;5.60;3.40;;;;;;;29.70;28.15;100468.38;105029;1264;74792;-63
2023/09/14 11:08:07;;;;;;;15.80;10.20;;;;;;;29.44;28.31;100461.11;104647;1264;67928;-60
2023/09/14 11:10:37;;;;;;;399.70;281.60;;;;;;;29.38;28.90;100461.25;105105;1267;71509;-62
2023/09/14 11:13:32;;;;;;;185.40;103.40;;;;;;;29.37;28.96;100459.57;105340;1267;61243;-64